sensor_id;sensor_type;location;lat;lon;timestamp;temperature;humidity
71254;HTU21D;59019;47.638;18.966;2023-04-24T00:01:40;9.50;84.37
71254;HTU21D;59019;47.638;18.966;2023-04-24T00:04:08;9.54;84.59
71254;HTU21D;59019;47.638;18.966;2023-04-24T00:06:37;9.61;83.84
71254;HTU21D;59019;47.638;18.966;2023-04-24T00:09:05;9.53;84.21
71254;HTU21D;59019;47.638;18.966;2023-04-24T00:11:30;9.62;83.78
71254;HTU21D;59019;47.638;18.966;2023-04-24T00:13:56;9.75;83.82
71254;HTU21D;59019;47.638;18.966;2023-04-24T00:16:22;9.89;83.99
71254;HTU21D;59019;47.638;18.966;2023-04-24T00:18:48;9.94;84.00
71254;HTU21D;59019;47.638;18.966;2023-04-24T00:21:14;10.00;84.09
71254;HTU21D;59019;47.638;18.966;2023-04-24T00:23:43;10.04;84.15
71254;HTU21D;59019;47.638;18.966;2023-04-24T00:26:09;10.10;83.84
71254;HTU21D;59019;47.638;18.966;2023-04-24T00:28:34;10.07;84.03
71254;HTU21D;59019;47.638;18.966;2023-04-24T00:31:00;10.10;84.10
71254;HTU21D;59019;47.638;18.966;2023-04-24T00:33:26;10.04;84.61
71254;HTU21D;59019;47.638;18.966;2023-04-24T00:35:51;10.12;83.90
71254;HTU21D;59019;47.638;18.966;2023-04-24T00:38:18;10.15;83.58
71254;HTU21D;59019;47.638;18.966;2023-04-24T00:40:43;10.16;84.18
71254;HTU21D;59019;47.638;18.966;2023-04-24T00:43:09;10.23;83.89
71254;HTU21D;59019;47.638;18.966;2023-04-24T00:45:35;10.26;83.67
71254;HTU21D;59019;47.638;18.966;2023-04-24T00:48:01;10.35;83.72
71254;HTU21D;59019;47.638;18.966;2023-04-24T00:50:28;10.27;83.85
71254;HTU21D;59019;47.638;18.966;2023-04-24T00:52:53;10.08;84.89
71254;HTU21D;59019;47.638;18.966;2023-04-24T00:55:19;10.13;84.28
71254;HTU21D;59019;47.638;18.966;2023-04-24T00:57:46;10.10;85.22
71254;HTU21D;59019;47.638;18.966;2023-04-24T01:00:12;10.16;84.67
71254;HTU21D;59019;47.638;18.966;2023-04-24T01:02:43;10.18;84.90
71254;HTU21D;59019;47.638;18.966;2023-04-24T01:05:13;10.13;85.48
71254;HTU21D;59019;47.638;18.966;2023-04-24T01:07:40;10.22;85.22
71254;HTU21D;59019;47.638;18.966;2023-04-24T01:10:09;10.31;84.93
71254;HTU21D;59019;47.638;18.966;2023-04-24T01:12:35;10.40;84.76
71254;HTU21D;59019;47.638;18.966;2023-04-24T01:15:00;10.46;84.76
71254;HTU21D;59019;47.638;18.966;2023-04-24T01:17:26;10.48;84.55
71254;HTU21D;59019;47.638;18.966;2023-04-24T01:19:51;10.37;85.27
71254;HTU21D;59019;47.638;18.966;2023-04-24T01:22:22;10.42;85.08
71254;HTU21D;59019;47.638;18.966;2023-04-24T01:24:48;10.53;84.81
71254;HTU21D;59019;47.638;18.966;2023-04-24T01:27:14;10.54;84.62
71254;HTU21D;59019;47.638;18.966;2023-04-24T01:29:40;10.58;84.87
71254;HTU21D;59019;47.638;18.966;2023-04-24T01:32:06;10.60;84.68
71254;HTU21D;59019;47.638;18.966;2023-04-24T01:34:32;10.65;84.10
71254;HTU21D;59019;47.638;18.966;2023-04-24T01:36:58;10.63;84.22
71254;HTU21D;59019;47.638;18.966;2023-04-24T01:39:23;10.59;84.88
71254;HTU21D;59019;47.638;18.966;2023-04-24T01:41:51;10.63;84.55
71254;HTU21D;59019;47.638;18.966;2023-04-24T01:44:18;10.66;82.30
71254;HTU21D;59019;47.638;18.966;2023-04-24T01:46:44;10.81;79.97
71254;HTU21D;59019;47.638;18.966;2023-04-24T01:49:10;10.97;78.46
71254;HTU21D;59019;47.638;18.966;2023-04-24T01:51:37;11.09;78.32
71254;HTU21D;59019;47.638;18.966;2023-04-24T01:54:02;11.17;76.85
71254;HTU21D;59019;47.638;18.966;2023-04-24T01:56:33;11.30;76.40
71254;HTU21D;59019;47.638;18.966;2023-04-24T01:59:03;11.34;77.37
71254;HTU21D;59019;47.638;18.966;2023-04-24T02:01:36;11.40;78.52
71254;HTU21D;59019;47.638;18.966;2023-04-24T02:04:02;11.45;80.78
71254;HTU21D;59019;47.638;18.966;2023-04-24T02:06:28;11.47;82.35
71254;HTU21D;59019;47.638;18.966;2023-04-24T02:08:53;11.16;82.88
71254;HTU21D;59019;47.638;18.966;2023-04-24T02:11:19;11.11;81.98
71254;HTU21D;59019;47.638;18.966;2023-04-24T02:13:44;11.09;85.84
71254;HTU21D;59019;47.638;18.966;2023-04-24T02:16:10;11.00;85.89
71254;HTU21D;59019;47.638;18.966;2023-04-24T02:18:36;10.95;85.58
71254;HTU21D;59019;47.638;18.966;2023-04-24T02:21:02;10.95;85.72
71254;HTU21D;59019;47.638;18.966;2023-04-24T02:23:27;10.98;86.06
71254;HTU21D;59019;47.638;18.966;2023-04-24T02:25:53;11.04;85.93
71254;HTU21D;59019;47.638;18.966;2023-04-24T02:28:19;11.05;85.24
71254;HTU21D;59019;47.638;18.966;2023-04-24T02:30:45;11.04;84.03
71254;HTU21D;59019;47.638;18.966;2023-04-24T02:33:11;11.10;84.43
71254;HTU21D;59019;47.638;18.966;2023-04-24T02:35:37;11.10;84.11
71254;HTU21D;59019;47.638;18.966;2023-04-24T02:38:03;11.12;84.17
71254;HTU21D;59019;47.638;18.966;2023-04-24T02:40:30;11.15;84.24
71254;HTU21D;59019;47.638;18.966;2023-04-24T02:42:55;11.15;83.13
71254;HTU21D;59019;47.638;18.966;2023-04-24T02:45:21;11.15;83.94
71254;HTU21D;59019;47.638;18.966;2023-04-24T02:47:47;11.18;84.41
71254;HTU21D;59019;47.638;18.966;2023-04-24T02:50:13;11.20;84.66
71254;HTU21D;59019;47.638;18.966;2023-04-24T02:52:38;11.24;84.99
71254;HTU21D;59019;47.638;18.966;2023-04-24T02:55:04;11.28;85.25
71254;HTU21D;59019;47.638;18.966;2023-04-24T02:57:30;11.28;85.70
71254;HTU21D;59019;47.638;18.966;2023-04-24T02:59:56;11.30;86.21
71254;HTU21D;59019;47.638;18.966;2023-04-24T03:02:21;11.30;86.41
71254;HTU21D;59019;47.638;18.966;2023-04-24T03:04:47;11.28;86.45
71254;HTU21D;59019;47.638;18.966;2023-04-24T03:07:15;11.32;86.19
71254;HTU21D;59019;47.638;18.966;2023-04-24T03:09:41;11.31;86.41
71254;HTU21D;59019;47.638;18.966;2023-04-24T03:12:07;11.32;86.33
71254;HTU21D;59019;47.638;18.966;2023-04-24T03:14:32;11.33;86.35
71254;HTU21D;59019;47.638;18.966;2023-04-24T03:16:58;11.31;86.41
71254;HTU21D;59019;47.638;18.966;2023-04-24T03:19:25;11.20;87.44
71254;HTU21D;59019;47.638;18.966;2023-04-24T03:21:50;11.25;87.54
71254;HTU21D;59019;47.638;18.966;2023-04-24T03:24:16;11.22;88.07
71254;HTU21D;59019;47.638;18.966;2023-04-24T03:26:41;11.16;88.71
71254;HTU21D;59019;47.638;18.966;2023-04-24T03:29:07;11.16;89.27
71254;HTU21D;59019;47.638;18.966;2023-04-24T03:31:32;10.92;90.76
71254;HTU21D;59019;47.638;18.966;2023-04-24T03:33:59;11.04;89.93
71254;HTU21D;59019;47.638;18.966;2023-04-24T03:36:25;11.03;89.69
71254;HTU21D;59019;47.638;18.966;2023-04-24T03:38:51;11.07;89.54
71254;HTU21D;59019;47.638;18.966;2023-04-24T03:41:17;11.08;89.28
71254;HTU21D;59019;47.638;18.966;2023-04-24T03:43:42;11.04;90.02
71254;HTU21D;59019;47.638;18.966;2023-04-24T03:46:08;11.07;90.55
71254;HTU21D;59019;47.638;18.966;2023-04-24T03:48:34;11.04;90.46
71254;HTU21D;59019;47.638;18.966;2023-04-24T03:51:00;11.08;90.75
71254;HTU21D;59019;47.638;18.966;2023-04-24T03:53:26;11.05;90.34
71254;HTU21D;59019;47.638;18.966;2023-04-24T03:55:52;11.12;90.47
71254;HTU21D;59019;47.638;18.966;2023-04-24T03:58:18;11.17;90.17
71254;HTU21D;59019;47.638;18.966;2023-04-24T04:00:43;11.15;90.15
71254;HTU21D;59019;47.638;18.966;2023-04-24T04:03:09;11.16;93.16
71254;HTU21D;59019;47.638;18.966;2023-04-24T04:05:35;11.15;92.98
71254;HTU21D;59019;47.638;18.966;2023-04-24T04:08:00;11.16;93.77
71254;HTU21D;59019;47.638;18.966;2023-04-24T04:10:26;11.15;94.53
71254;HTU21D;59019;47.638;18.966;2023-04-24T04:12:51;11.03;94.28
71254;HTU21D;59019;47.638;18.966;2023-04-24T04:15:17;11.13;92.88
71254;HTU21D;59019;47.638;18.966;2023-04-24T04:17:43;11.17;91.89
71254;HTU21D;59019;47.638;18.966;2023-04-24T04:20:08;11.20;91.21
71254;HTU21D;59019;47.638;18.966;2023-04-24T04:22:36;11.27;91.03
71254;HTU21D;59019;47.638;18.966;2023-04-24T04:25:02;11.29;90.10
71254;HTU21D;59019;47.638;18.966;2023-04-24T04:27:28;11.29;89.15
71254;HTU21D;59019;47.638;18.966;2023-04-24T04:30:06;11.33;86.61
71254;HTU21D;59019;47.638;18.966;2023-04-24T04:32:32;11.28;84.68
71254;HTU21D;59019;47.638;18.966;2023-04-24T04:34:59;11.39;83.69
71254;HTU21D;59019;47.638;18.966;2023-04-24T04:37:37;11.53;82.96
71254;HTU21D;59019;47.638;18.966;2023-04-24T04:40:04;11.64;83.06
71254;HTU21D;59019;47.638;18.966;2023-04-24T04:42:32;11.70;83.65
71254;HTU21D;59019;47.638;18.966;2023-04-24T04:45:00;11.64;84.63
71254;HTU21D;59019;47.638;18.966;2023-04-24T04:47:26;11.41;85.89
71254;HTU21D;59019;47.638;18.966;2023-04-24T04:49:52;11.57;85.69
71254;HTU21D;59019;47.638;18.966;2023-04-24T04:52:18;11.63;84.63
71254;HTU21D;59019;47.638;18.966;2023-04-24T04:54:44;11.76;83.18
71254;HTU21D;59019;47.638;18.966;2023-04-24T04:57:10;11.88;81.37
71254;HTU21D;59019;47.638;18.966;2023-04-24T04:59:35;11.91;80.71
71254;HTU21D;59019;47.638;18.966;2023-04-24T05:02:02;12.04;79.83
71254;HTU21D;59019;47.638;18.966;2023-04-24T05:04:28;12.17;79.78
71254;HTU21D;59019;47.638;18.966;2023-04-24T05:06:53;12.25;79.11
71254;HTU21D;59019;47.638;18.966;2023-04-24T05:09:19;12.36;78.75
71254;HTU21D;59019;47.638;18.966;2023-04-24T05:11:44;12.56;78.52
71254;HTU21D;59019;47.638;18.966;2023-04-24T05:14:10;12.49;78.40
71254;HTU21D;59019;47.638;18.966;2023-04-24T05:16:35;12.57;77.22
71254;HTU21D;59019;47.638;18.966;2023-04-24T05:19:02;12.78;76.84
71254;HTU21D;59019;47.638;18.966;2023-04-24T05:21:28;12.93;77.23
71254;HTU21D;59019;47.638;18.966;2023-04-24T05:23:53;13.14;76.76
71254;HTU21D;59019;47.638;18.966;2023-04-24T05:26:20;13.40;76.34
71254;HTU21D;59019;47.638;18.966;2023-04-24T05:28:45;13.78;75.86
71254;HTU21D;59019;47.638;18.966;2023-04-24T05:31:11;14.07;74.80
71254;HTU21D;59019;47.638;18.966;2023-04-24T05:33:37;14.44;74.48
71254;HTU21D;59019;47.638;18.966;2023-04-24T05:36:03;14.73;73.39
71254;HTU21D;59019;47.638;18.966;2023-04-24T05:38:32;15.00;72.09
71254;HTU21D;59019;47.638;18.966;2023-04-24T05:40:57;14.89;71.86
71254;HTU21D;59019;47.638;18.966;2023-04-24T05:43:25;14.73;71.88
71254;HTU21D;59019;47.638;18.966;2023-04-24T05:45:50;14.59;72.51
71254;HTU21D;59019;47.638;18.966;2023-04-24T05:48:16;14.60;72.69
71254;HTU21D;59019;47.638;18.966;2023-04-24T05:50:42;14.50;73.28
71254;HTU21D;59019;47.638;18.966;2023-04-24T05:53:08;14.58;73.68
71254;HTU21D;59019;47.638;18.966;2023-04-24T05:55:36;14.14;74.26
71254;HTU21D;59019;47.638;18.966;2023-04-24T05:58:01;14.07;75.38
71254;HTU21D;59019;47.638;18.966;2023-04-24T06:00:27;14.18;75.16
71254;HTU21D;59019;47.638;18.966;2023-04-24T06:02:53;14.03;75.64
71254;HTU21D;59019;47.638;18.966;2023-04-24T06:05:19;13.98;75.98
71254;HTU21D;59019;47.638;18.966;2023-04-24T06:07:45;13.73;76.73
71254;HTU21D;59019;47.638;18.966;2023-04-24T06:10:11;13.69;77.00
71254;HTU21D;59019;47.638;18.966;2023-04-24T06:12:37;13.39;77.56
71254;HTU21D;59019;47.638;18.966;2023-04-24T06:15:03;13.52;77.37
71254;HTU21D;59019;47.638;18.966;2023-04-24T06:17:30;13.63;77.16
71254;HTU21D;59019;47.638;18.966;2023-04-24T06:19:56;13.62;77.54
71254;HTU21D;59019;47.638;18.966;2023-04-24T06:22:24;13.60;78.43
71254;HTU21D;59019;47.638;18.966;2023-04-24T06:24:49;13.67;79.02
71254;HTU21D;59019;47.638;18.966;2023-04-24T06:27:15;13.69;79.95
71254;HTU21D;59019;47.638;18.966;2023-04-24T06:29:40;13.82;80.56
71254;HTU21D;59019;47.638;18.966;2023-04-24T06:32:06;14.03;80.41
71254;HTU21D;59019;47.638;18.966;2023-04-24T06:34:33;14.12;78.47
71254;HTU21D;59019;47.638;18.966;2023-04-24T06:37:00;14.28;79.01
71254;HTU21D;59019;47.638;18.966;2023-04-24T06:39:25;14.33;77.79
71254;HTU21D;59019;47.638;18.966;2023-04-24T06:41:51;14.55;76.66
71254;HTU21D;59019;47.638;18.966;2023-04-24T06:44:16;14.88;76.06
71254;HTU21D;59019;47.638;18.966;2023-04-24T06:46:42;14.94;75.14
71254;HTU21D;59019;47.638;18.966;2023-04-24T06:49:07;15.07;75.41
71254;HTU21D;59019;47.638;18.966;2023-04-24T06:51:34;15.13;74.94
71254;HTU21D;59019;47.638;18.966;2023-04-24T06:54:00;15.07;75.02
71254;HTU21D;59019;47.638;18.966;2023-04-24T06:56:26;14.93;75.06
71254;HTU21D;59019;47.638;18.966;2023-04-24T06:58:51;14.96;75.38
71254;HTU21D;59019;47.638;18.966;2023-04-24T07:01:17;15.15;74.44
71254;HTU21D;59019;47.638;18.966;2023-04-24T07:03:43;15.09;74.83
71254;HTU21D;59019;47.638;18.966;2023-04-24T07:06:09;15.07;74.61
71254;HTU21D;59019;47.638;18.966;2023-04-24T07:08:36;15.00;74.66
71254;HTU21D;59019;47.638;18.966;2023-04-24T07:11:02;14.87;75.41
71254;HTU21D;59019;47.638;18.966;2023-04-24T07:13:28;15.12;74.98
71254;HTU21D;59019;47.638;18.966;2023-04-24T07:15:54;15.32;74.93
71254;HTU21D;59019;47.638;18.966;2023-04-24T07:18:21;15.60;74.31
71254;HTU21D;59019;47.638;18.966;2023-04-24T07:20:47;15.88;74.62
71254;HTU21D;59019;47.638;18.966;2023-04-24T07:23:16;16.26;73.63
71254;HTU21D;59019;47.638;18.966;2023-04-24T07:25:41;16.62;71.77
71254;HTU21D;59019;47.638;18.966;2023-04-24T07:28:07;16.84;71.16
71254;HTU21D;59019;47.638;18.966;2023-04-24T07:30:33;16.27;73.15
71254;HTU21D;59019;47.638;18.966;2023-04-24T07:32:59;16.45;72.37
71254;HTU21D;59019;47.638;18.966;2023-04-24T07:35:26;16.66;72.41
71254;HTU21D;59019;47.638;18.966;2023-04-24T07:37:53;17.11;71.75
71254;HTU21D;59019;47.638;18.966;2023-04-24T07:40:18;17.64;70.54
71254;HTU21D;59019;47.638;18.966;2023-04-24T07:42:44;17.85;69.87
71254;HTU21D;59019;47.638;18.966;2023-04-24T07:45:10;18.05;68.26
71254;HTU21D;59019;47.638;18.966;2023-04-24T07:47:35;17.88;69.18
71254;HTU21D;59019;47.638;18.966;2023-04-24T07:50:02;18.10;68.56
71254;HTU21D;59019;47.638;18.966;2023-04-24T07:52:28;18.22;68.48
71254;HTU21D;59019;47.638;18.966;2023-04-24T07:54:54;18.27;68.05
71254;HTU21D;59019;47.638;18.966;2023-04-24T07:57:24;18.23;68.21
71254;HTU21D;59019;47.638;18.966;2023-04-24T07:59:50;18.00;68.54
71254;HTU21D;59019;47.638;18.966;2023-04-24T08:02:16;18.13;68.71
71254;HTU21D;59019;47.638;18.966;2023-04-24T08:04:41;18.18;68.75
71254;HTU21D;59019;47.638;18.966;2023-04-24T08:07:07;18.48;68.55
71254;HTU21D;59019;47.638;18.966;2023-04-24T08:09:33;18.61;67.66
71254;HTU21D;59019;47.638;18.966;2023-04-24T08:11:59;18.62;67.61
71254;HTU21D;59019;47.638;18.966;2023-04-24T08:14:25;18.93;67.55
71254;HTU21D;59019;47.638;18.966;2023-04-24T08:16:51;19.29;66.46
71254;HTU21D;59019;47.638;18.966;2023-04-24T08:19:17;19.57;66.53
71254;HTU21D;59019;47.638;18.966;2023-04-24T08:21:42;19.24;65.71
71254;HTU21D;59019;47.638;18.966;2023-04-24T08:24:08;19.59;65.66
71254;HTU21D;59019;47.638;18.966;2023-04-24T08:26:33;19.90;65.33
71254;HTU21D;59019;47.638;18.966;2023-04-24T08:28:59;20.11;64.90
71254;HTU21D;59019;47.638;18.966;2023-04-24T08:31:25;20.47;64.42
71254;HTU21D;59019;47.638;18.966;2023-04-24T08:33:51;20.31;64.02
71254;HTU21D;59019;47.638;18.966;2023-04-24T08:36:16;20.68;63.50
71254;HTU21D;59019;47.638;18.966;2023-04-24T08:38:42;21.08;62.89
71254;HTU21D;59019;47.638;18.966;2023-04-24T08:41:09;21.25;61.96
71254;HTU21D;59019;47.638;18.966;2023-04-24T08:43:35;21.19;61.02
71254;HTU21D;59019;47.638;18.966;2023-04-24T08:46:03;21.11;62.15
71254;HTU21D;59019;47.638;18.966;2023-04-24T08:48:29;21.64;61.96
71254;HTU21D;59019;47.638;18.966;2023-04-24T08:50:57;21.45;62.59
71254;HTU21D;59019;47.638;18.966;2023-04-24T08:53:24;21.83;61.41
71254;HTU21D;59019;47.638;18.966;2023-04-24T08:55:51;21.72;61.03
71254;HTU21D;59019;47.638;18.966;2023-04-24T08:58:17;21.75;59.66
71254;HTU21D;59019;47.638;18.966;2023-04-24T09:00:44;21.94;59.19
71254;HTU21D;59019;47.638;18.966;2023-04-24T09:03:16;21.46;60.09
71254;HTU21D;59019;47.638;18.966;2023-04-24T09:05:46;20.49;62.32
71254;HTU21D;59019;47.638;18.966;2023-04-24T09:08:18;19.68;63.59
71254;HTU21D;59019;47.638;18.966;2023-04-24T09:10:44;19.65;64.50
71254;HTU21D;59019;47.638;18.966;2023-04-24T09:13:10;19.42;64.37
71254;HTU21D;59019;47.638;18.966;2023-04-24T09:15:40;19.32;65.47
71254;HTU21D;59019;47.638;18.966;2023-04-24T09:18:06;19.33;65.78
71254;HTU21D;59019;47.638;18.966;2023-04-24T09:20:33;19.72;65.39
71254;HTU21D;59019;47.638;18.966;2023-04-24T09:22:58;19.43;65.00
71254;HTU21D;59019;47.638;18.966;2023-04-24T09:25:34;20.17;64.24
71254;HTU21D;59019;47.638;18.966;2023-04-24T09:28:03;20.50;62.89
71254;HTU21D;59019;47.638;18.966;2023-04-24T09:30:29;21.01;61.77
71254;HTU21D;59019;47.638;18.966;2023-04-24T09:33:15;20.72;60.86
71254;HTU21D;59019;47.638;18.966;2023-04-24T09:35:51;20.84;60.97
71254;HTU21D;59019;47.638;18.966;2023-04-24T09:38:17;21.01;61.02
71254;HTU21D;59019;47.638;18.966;2023-04-24T09:40:43;20.95;61.65
71254;HTU21D;59019;47.638;18.966;2023-04-24T09:43:11;20.63;61.78
71254;HTU21D;59019;47.638;18.966;2023-04-24T09:45:38;20.43;62.47
71254;HTU21D;59019;47.638;18.966;2023-04-24T09:48:05;19.71;64.59
71254;HTU21D;59019;47.638;18.966;2023-04-24T09:50:34;19.68;64.62
71254;HTU21D;59019;47.638;18.966;2023-04-24T09:53:05;18.78;66.25
71254;HTU21D;59019;47.638;18.966;2023-04-24T09:55:39;19.30;65.79
71254;HTU21D;59019;47.638;18.966;2023-04-24T09:58:07;19.60;64.53
71254;HTU21D;59019;47.638;18.966;2023-04-24T10:00:33;20.18;63.39
71254;HTU21D;59019;47.638;18.966;2023-04-24T10:03:00;20.51;62.92
71254;HTU21D;59019;47.638;18.966;2023-04-24T10:05:31;20.95;62.26
71254;HTU21D;59019;47.638;18.966;2023-04-24T10:08:11;20.59;60.84
71254;HTU21D;59019;47.638;18.966;2023-04-24T10:10:44;20.68;60.75
71254;HTU21D;59019;47.638;18.966;2023-04-24T10:13:11;20.99;60.99
71254;HTU21D;59019;47.638;18.966;2023-04-24T10:15:38;21.25;60.06
71254;HTU21D;59019;47.638;18.966;2023-04-24T10:18:05;20.89;60.15
71254;HTU21D;59019;47.638;18.966;2023-04-24T10:20:36;20.95;61.15
71254;HTU21D;59019;47.638;18.966;2023-04-24T10:23:02;19.80;62.00
71254;HTU21D;59019;47.638;18.966;2023-04-24T10:25:30;20.22;62.44
71254;HTU21D;59019;47.638;18.966;2023-04-24T10:27:57;19.63;64.62
71254;HTU21D;59019;47.638;18.966;2023-04-24T10:30:45;19.73;65.67
71254;HTU21D;59019;47.638;18.966;2023-04-24T10:33:31;19.28;65.85
71254;HTU21D;59019;47.638;18.966;2023-04-24T10:36:17;18.98;66.08
71254;HTU21D;59019;47.638;18.966;2023-04-24T10:39:06;19.30;66.30
71254;HTU21D;59019;47.638;18.966;2023-04-24T10:41:41;19.38;66.40
71254;HTU21D;59019;47.638;18.966;2023-04-24T10:44:13;19.56;65.41
71254;HTU21D;59019;47.638;18.966;2023-04-24T10:46:42;19.23;65.78
71254;HTU21D;59019;47.638;18.966;2023-04-24T10:49:08;19.16;66.26
71254;HTU21D;59019;47.638;18.966;2023-04-24T10:51:51;18.98;66.79
71254;HTU21D;59019;47.638;18.966;2023-04-24T10:59:45;17.95;70.21
71254;HTU21D;59019;47.638;18.966;2023-04-24T11:02:14;18.17;70.23
71254;HTU21D;59019;47.638;18.966;2023-04-24T11:04:41;18.00;71.01
71254;HTU21D;59019;47.638;18.966;2023-04-24T11:07:09;17.54;72.50
71254;HTU21D;59019;47.638;18.966;2023-04-24T11:09:35;17.18;74.91
71254;HTU21D;59019;47.638;18.966;2023-04-24T11:12:06;17.02;76.79
71254;HTU21D;59019;47.638;18.966;2023-04-24T11:17:30;17.46;78.98
71254;HTU21D;59019;47.638;18.966;2023-04-24T11:20:07;17.60;76.26
71254;HTU21D;59019;47.638;18.966;2023-04-24T11:22:34;17.88;75.57
71254;HTU21D;59019;47.638;18.966;2023-04-24T11:25:04;17.39;76.23
71254;HTU21D;59019;47.638;18.966;2023-04-24T11:27:31;17.80;75.38
71254;HTU21D;59019;47.638;18.966;2023-04-24T11:30:00;17.50;74.33
71254;HTU21D;59019;47.638;18.966;2023-04-24T11:37:48;17.65;73.73
71254;HTU21D;59019;47.638;18.966;2023-04-24T11:40:18;17.81;73.27
71254;HTU21D;59019;47.638;18.966;2023-04-24T11:42:47;17.92;73.65
71254;HTU21D;59019;47.638;18.966;2023-04-24T11:45:14;17.73;74.32
71254;HTU21D;59019;47.638;18.966;2023-04-24T11:47:41;17.60;72.87
71254;HTU21D;59019;47.638;18.966;2023-04-24T11:50:12;17.83;72.67
71254;HTU21D;59019;47.638;18.966;2023-04-24T11:52:39;18.05;72.49
71254;HTU21D;59019;47.638;18.966;2023-04-24T11:57:38;18.34;71.58
71254;HTU21D;59019;47.638;18.966;2023-04-24T12:00:04;18.29;71.96
71254;HTU21D;59019;47.638;18.966;2023-04-24T12:02:31;18.38;72.87
71254;HTU21D;59019;47.638;18.966;2023-04-24T12:04:56;18.38;73.19
71254;HTU21D;59019;47.638;18.966;2023-04-24T12:07:22;18.35;73.13
71254;HTU21D;59019;47.638;18.966;2023-04-24T12:09:55;18.44;73.90
71254;HTU21D;59019;47.638;18.966;2023-04-24T12:12:24;18.56;73.79
71254;HTU21D;59019;47.638;18.966;2023-04-24T12:14:57;18.83;76.92
71254;HTU21D;59019;47.638;18.966;2023-04-24T12:17:25;19.09;78.08
71254;HTU21D;59019;47.638;18.966;2023-04-24T12:19:51;19.23;75.67
71254;HTU21D;59019;47.638;18.966;2023-04-24T12:22:17;19.24;76.16
71254;HTU21D;59019;47.638;18.966;2023-04-24T12:27:23;19.14;79.85
71254;HTU21D;59019;47.638;18.966;2023-04-24T12:30:15;19.09;80.51
71254;HTU21D;59019;47.638;18.966;2023-04-24T12:32:47;19.12;81.04
71254;HTU21D;59019;47.638;18.966;2023-04-24T12:35:19;19.09;80.69
71254;HTU21D;59019;47.638;18.966;2023-04-24T12:37:45;19.05;80.82
71254;HTU21D;59019;47.638;18.966;2023-04-24T12:40:12;19.05;80.18
71254;HTU21D;59019;47.638;18.966;2023-04-24T12:42:57;19.11;81.52
71254;HTU21D;59019;47.638;18.966;2023-04-24T12:45:33;19.16;81.57
71254;HTU21D;59019;47.638;18.966;2023-04-24T12:47:58;19.21;82.13
71254;HTU21D;59019;47.638;18.966;2023-04-24T12:50:24;19.23;79.95
71254;HTU21D;59019;47.638;18.966;2023-04-24T12:52:49;19.27;79.74
71254;HTU21D;59019;47.638;18.966;2023-04-24T12:55:15;19.37;79.88
71254;HTU21D;59019;47.638;18.966;2023-04-24T12:57:43;19.43;79.60
71254;HTU21D;59019;47.638;18.966;2023-04-24T13:00:09;19.50;79.11
71254;HTU21D;59019;47.638;18.966;2023-04-24T13:02:35;19.53;78.14
71254;HTU21D;59019;47.638;18.966;2023-04-24T13:05:01;19.48;76.83
71254;HTU21D;59019;47.638;18.966;2023-04-24T13:07:28;19.43;76.39
71254;HTU21D;59019;47.638;18.966;2023-04-24T13:09:55;19.38;77.42
71254;HTU21D;59019;47.638;18.966;2023-04-24T13:12:21;19.36;78.65
71254;HTU21D;59019;47.638;18.966;2023-04-24T13:14:50;19.36;76.92
71254;HTU21D;59019;47.638;18.966;2023-04-24T13:17:20;18.62;74.94
71254;HTU21D;59019;47.638;18.966;2023-04-24T13:19:49;18.36;74.00
71254;HTU21D;59019;47.638;18.966;2023-04-24T13:22:16;18.21;73.28
71254;HTU21D;59019;47.638;18.966;2023-04-24T13:24:44;18.32;73.06
71254;HTU21D;59019;47.638;18.966;2023-04-24T13:27:11;18.05;72.94
71254;HTU21D;59019;47.638;18.966;2023-04-24T13:29:37;17.83;72.47
71254;HTU21D;59019;47.638;18.966;2023-04-24T13:32:03;17.84;74.24
71254;HTU21D;59019;47.638;18.966;2023-04-24T13:34:28;17.70;74.89
71254;HTU21D;59019;47.638;18.966;2023-04-24T13:36:56;17.68;75.50
71254;HTU21D;59019;47.638;18.966;2023-04-24T13:39:23;17.80;75.91
71254;HTU21D;59019;47.638;18.966;2023-04-24T13:41:49;17.39;76.87
71254;HTU21D;59019;47.638;18.966;2023-04-24T13:44:16;17.67;77.14
71254;HTU21D;59019;47.638;18.966;2023-04-24T13:46:43;17.64;77.85
71254;HTU21D;59019;47.638;18.966;2023-04-24T13:49:11;17.69;77.37
71254;HTU21D;59019;47.638;18.966;2023-04-24T13:51:36;17.37;77.46
71254;HTU21D;59019;47.638;18.966;2023-04-24T13:54:02;17.73;77.42
71254;HTU21D;59019;47.638;18.966;2023-04-24T13:56:28;17.56;77.72
71254;HTU21D;59019;47.638;18.966;2023-04-24T13:58:53;17.79;76.86
71254;HTU21D;59019;47.638;18.966;2023-04-24T14:01:20;17.83;76.99
71254;HTU21D;59019;47.638;18.966;2023-04-24T14:03:49;17.91;77.12
71254;HTU21D;59019;47.638;18.966;2023-04-24T14:06:15;17.56;77.93
71254;HTU21D;59019;47.638;18.966;2023-04-24T14:08:40;17.58;78.23
71254;HTU21D;59019;47.638;18.966;2023-04-24T14:11:06;17.51;77.69
71254;HTU21D;59019;47.638;18.966;2023-04-24T14:13:32;17.32;78.90
71254;HTU21D;59019;47.638;18.966;2023-04-24T14:15:58;16.90;79.28
71254;HTU21D;59019;47.638;18.966;2023-04-24T14:18:23;16.78;79.72
71254;HTU21D;59019;47.638;18.966;2023-04-24T14:20:49;16.70;79.98
71254;HTU21D;59019;47.638;18.966;2023-04-24T14:23:15;16.52;80.70
71254;HTU21D;59019;47.638;18.966;2023-04-24T14:25:41;16.28;82.53
71254;HTU21D;59019;47.638;18.966;2023-04-24T14:28:06;16.29;83.17
71254;HTU21D;59019;47.638;18.966;2023-04-24T14:30:32;16.29;83.52
71254;HTU21D;59019;47.638;18.966;2023-04-24T14:32:58;15.90;85.14
71254;HTU21D;59019;47.638;18.966;2023-04-24T14:35:23;15.77;86.52
71254;HTU21D;59019;47.638;18.966;2023-04-24T14:37:49;15.90;86.69
71254;HTU21D;59019;47.638;18.966;2023-04-24T14:40:15;16.05;86.61
71254;HTU21D;59019;47.638;18.966;2023-04-24T14:42:40;15.89;86.79
71254;HTU21D;59019;47.638;18.966;2023-04-24T14:45:06;15.97;86.49
71254;HTU21D;59019;47.638;18.966;2023-04-24T14:47:33;15.91;86.35
71254;HTU21D;59019;47.638;18.966;2023-04-24T14:49:59;15.83;86.86
71254;HTU21D;59019;47.638;18.966;2023-04-24T14:52:25;15.96;86.45
71254;HTU21D;59019;47.638;18.966;2023-04-24T14:54:50;16.02;85.83
71254;HTU21D;59019;47.638;18.966;2023-04-24T14:57:16;16.02;85.90
71254;HTU21D;59019;47.638;18.966;2023-04-24T14:59:42;15.82;86.01
71254;HTU21D;59019;47.638;18.966;2023-04-24T15:02:07;15.60;85.76
71254;HTU21D;59019;47.638;18.966;2023-04-24T15:04:33;15.52;86.05
71254;HTU21D;59019;47.638;18.966;2023-04-24T15:06:58;15.45;85.93
71254;HTU21D;59019;47.638;18.966;2023-04-24T15:09:24;15.14;87.35
71254;HTU21D;59019;47.638;18.966;2023-04-24T15:11:51;15.31;86.83
71254;HTU21D;59019;47.638;18.966;2023-04-24T15:14:17;15.47;87.18
71254;HTU21D;59019;47.638;18.966;2023-04-24T15:16:43;15.45;86.66
71254;HTU21D;59019;47.638;18.966;2023-04-24T15:19:09;15.29;85.68
71254;HTU21D;59019;47.638;18.966;2023-04-24T15:21:35;15.04;85.53